createdAt,value
2019-03-26T00:01:15.823Z,10.27
2019-03-26T00:04:04.748Z,8.10
2019-03-26T00:06:26.553Z,8.43
2019-03-26T00:09:00.216Z,8.73
2019-03-26T00:11:35.192Z,9.37
2019-03-26T00:14:08.894Z,7.10
2019-03-26T00:16:42.647Z,7.83
2019-03-26T00:19:17.554Z,8.80
2019-03-26T00:21:51.299Z,8.20
2019-03-26T00:24:26.467Z,8.13
2019-03-26T00:27:01.334Z,7.47
2019-03-26T00:29:35.042Z,8.40
2019-03-26T00:32:08.587Z,7.70
2019-03-26T00:34:42.176Z,6.97
2019-03-26T00:37:15.832Z,6.23
2019-03-26T00:39:49.403Z,7.43
2019-03-26T00:42:23.088Z,7.17
2019-03-26T00:44:58.889Z,7.07
2019-03-26T00:47:33.927Z,7.43
2019-03-26T00:50:08.333Z,8.37
2019-03-26T00:52:42.159Z,11.93
2019-03-26T00:55:22.403Z,9.43
2019-03-26T00:57:50.664Z,10.45
2019-03-26T01:00:41.870Z,6.40
2019-03-26T01:03:15.893Z,6.67
2019-03-26T01:05:51.057Z,7.53
2019-03-26T01:08:24.869Z,7.60
2019-03-26T01:10:58.316Z,4.73
2019-03-26T01:13:38.594Z,4.00
2019-03-26T01:16:13.073Z,4.50
2019-03-26T01:18:47.133Z,5.83
2019-03-26T01:21:20.840Z,5.35
2019-03-26T01:23:54.697Z,5.67
2019-03-26T01:26:28.322Z,5.93
2019-03-26T01:29:01.918Z,5.97
2019-03-26T01:31:35.650Z,8.07
2019-03-26T01:34:09.270Z,12.23
2019-03-26T01:36:43.037Z,7.30
2019-03-26T01:39:16.831Z,5.47
2019-03-26T01:41:51.789Z,5.90
2019-03-26T01:44:25.551Z,16.02
2019-03-26T01:46:59.129Z,6.80
2019-03-26T01:49:33.358Z,10.70
2019-03-26T01:52:07.015Z,5.15
2019-03-26T01:54:40.688Z,4.93
2019-03-26T01:57:14.510Z,4.30
2019-03-26T01:59:47.966Z,3.40
2019-03-26T02:02:23.283Z,3.80
2019-03-26T02:05:00.297Z,6.60
2019-03-26T02:07:31.945Z,4.50
2019-03-26T02:10:06.148Z,4.17
2019-03-26T02:12:40.159Z,3.10
2019-03-26T02:15:16.861Z,4.50
2019-03-26T02:17:51.462Z,4.05
2019-03-26T02:20:25.695Z,4.20
2019-03-26T02:22:59.285Z,3.60
2019-03-26T02:25:32.832Z,3.90
2019-03-26T02:28:06.413Z,4.00
2019-03-26T02:30:40.301Z,4.47
2019-03-26T02:33:13.877Z,4.30
2019-03-26T02:35:47.555Z,3.93
2019-03-26T02:38:21.603Z,4.67
2019-03-26T02:40:55.133Z,4.80
2019-03-26T02:43:31.909Z,4.20
2019-03-26T02:46:05.579Z,3.83
2019-03-26T02:48:40.832Z,3.30
2019-03-26T02:51:14.628Z,3.70
2019-03-26T02:53:48.248Z,2.77
2019-03-26T02:56:21.584Z,3.00
2019-03-26T02:58:55.582Z,2.60
2019-03-26T03:01:29.121Z,2.62
2019-03-26T03:04:02.698Z,3.97
2019-03-26T03:06:36.277Z,3.80
2019-03-26T03:09:10.161Z,2.83
2019-03-26T03:11:43.855Z,3.90
2019-03-26T03:14:17.189Z,2.63
2019-03-26T03:16:51.434Z,2.87
2019-03-26T03:19:25.159Z,3.53
2019-03-26T03:21:58.772Z,3.53
2019-03-26T03:24:32.699Z,3.53
2019-03-26T03:27:06.018Z,2.80
2019-03-26T03:29:39.717Z,2.65
2019-03-26T03:32:13.477Z,2.43
2019-03-26T03:34:47.098Z,2.80
2019-03-26T03:37:21.827Z,2.70
2019-03-26T03:39:55.418Z,2.60
2019-03-26T03:42:29.232Z,2.53
2019-03-26T03:45:02.765Z,2.45
2019-03-26T03:47:39.500Z,2.43
2019-03-26T03:50:14.987Z,2.20
2019-03-26T03:52:49.529Z,2.67
2019-03-26T03:55:23.377Z,2.77
2019-03-26T03:57:59.022Z,2.67
2019-03-26T04:00:44.202Z,2.43
2019-03-26T04:03:17.807Z,2.00
2019-03-26T04:06:07.821Z,2.80
2019-03-26T04:08:26.955Z,1.87
2019-03-26T04:11:00.734Z,1.80
2019-03-26T04:13:34.394Z,2.27
2019-03-26T04:16:09.330Z,1.77
2019-03-26T04:18:43.330Z,2.23
2019-03-26T04:21:17.276Z,2.43
2019-03-26T04:23:50.952Z,1.70
2019-03-26T04:26:24.825Z,1.90
2019-03-26T04:28:58.474Z,1.80
2019-03-26T04:31:32.325Z,2.40
2019-03-26T04:34:06.143Z,1.90
2019-03-26T04:36:40.225Z,1.90
2019-03-26T04:39:13.849Z,1.90
2019-03-26T04:41:47.518Z,2.10
2019-03-26T04:44:22.248Z,2.10
2019-03-26T04:46:57.791Z,1.97
2019-03-26T04:49:31.074Z,1.80
2019-03-26T04:52:04.780Z,1.80
2019-03-26T04:54:38.375Z,2.07
2019-03-26T04:57:12.225Z,2.20
2019-03-26T04:59:45.721Z,2.13
2019-03-26T05:02:19.620Z,2.40
2019-03-26T05:04:53.026Z,2.00
2019-03-26T05:07:27.043Z,2.23
2019-03-26T05:10:00.883Z,2.57
2019-03-26T05:12:34.752Z,3.07
2019-03-26T05:15:08.841Z,3.40
2019-03-26T05:17:42.398Z,2.80
2019-03-26T05:20:16.149Z,2.60
2019-03-26T05:22:49.697Z,2.43
2019-03-26T05:25:23.509Z,2.80
2019-03-26T05:27:57.492Z,3.22
2019-03-26T05:30:33.106Z,2.53
2019-03-26T05:33:06.316Z,3.37
2019-03-26T05:35:40.597Z,3.10
2019-03-26T05:38:18.751Z,2.93
2019-03-26T05:40:52.618Z,3.00
2019-03-26T05:43:26.477Z,3.00
2019-03-26T05:46:00.110Z,3.10
2019-03-26T05:48:33.680Z,2.80
2019-03-26T05:51:07.771Z,3.40
2019-03-26T05:53:41.565Z,3.10
2019-03-26T05:56:15.134Z,3.90
2019-03-26T05:58:52.468Z,2.93
2019-03-26T06:01:25.990Z,3.33
2019-03-26T06:04:00.828Z,3.37
2019-03-26T06:06:34.392Z,2.63
2019-03-26T06:09:09.746Z,3.10
2019-03-26T06:11:43.446Z,3.10
2019-03-26T06:14:17.041Z,2.97
2019-03-26T06:16:54.371Z,4.90
2019-03-26T06:19:29.367Z,4.00
2019-03-26T06:22:04.112Z,3.90
2019-03-26T06:24:37.714Z,3.93
2019-03-26T06:27:11.445Z,3.83
2019-03-26T06:29:46.531Z,4.17
2019-03-26T06:32:20.170Z,4.80
2019-03-26T06:34:53.936Z,4.30
2019-03-26T06:37:27.658Z,3.95
2019-03-26T06:40:01.681Z,4.37
2019-03-26T06:42:37.539Z,5.12
2019-03-26T06:45:14.749Z,6.63
2019-03-26T06:47:48.820Z,7.70
2019-03-26T06:50:23.224Z,8.90
2019-03-26T06:52:56.920Z,4.40
2019-03-26T06:55:30.640Z,3.73
2019-03-26T06:58:06.924Z,4.40
2019-03-26T07:00:40.422Z,4.03
2019-03-26T07:03:14.120Z,4.78
2019-03-26T07:05:48.421Z,4.03
2019-03-26T07:08:21.904Z,3.20
2019-03-26T07:10:56.994Z,3.13
2019-03-26T07:13:30.654Z,3.37
2019-03-26T07:16:06.006Z,3.10
2019-03-26T07:18:40.096Z,3.37
2019-03-26T07:21:13.622Z,3.20
2019-03-26T07:23:47.952Z,2.83
2019-03-26T07:26:22.542Z,2.97
2019-03-26T07:28:57.977Z,2.73
2019-03-26T07:31:34.236Z,2.52
2019-03-26T07:34:08.111Z,3.13
2019-03-26T07:36:42.377Z,2.93
2019-03-26T07:39:19.361Z,3.23
2019-03-26T07:41:53.397Z,3.15
2019-03-26T07:44:27.252Z,3.27
2019-03-26T07:47:00.618Z,3.10
2019-03-26T07:49:34.272Z,2.77
2019-03-26T07:52:08.048Z,4.40
2019-03-26T07:54:42.109Z,3.97
2019-03-26T07:57:17.369Z,3.57
2019-03-26T07:59:53.727Z,3.60
2019-03-26T08:02:29.064Z,3.40
2019-03-26T08:05:04.230Z,3.80
2019-03-26T08:07:58.452Z,3.35
2019-03-26T08:10:32.578Z,4.10
2019-03-26T08:13:06.597Z,3.70
2019-03-26T08:15:40.653Z,3.60
2019-03-26T08:18:14.210Z,3.80
2019-03-26T08:20:48.111Z,3.80
2019-03-26T08:23:21.781Z,3.53
2019-03-26T08:25:55.527Z,3.90
2019-03-26T08:28:29.040Z,3.80
2019-03-26T08:31:03.198Z,3.97
2019-03-26T08:33:38.194Z,4.00
2019-03-26T08:36:13.028Z,4.00
2019-03-26T08:38:47.302Z,3.70
2019-03-26T08:41:22.367Z,4.00
2019-03-26T08:43:56.340Z,4.40
2019-03-26T08:46:29.847Z,4.43
2019-03-26T08:49:03.841Z,4.30
2019-03-26T08:51:37.557Z,4.80
2019-03-26T08:54:11.461Z,4.30
2019-03-26T08:56:45.498Z,5.00
2019-03-26T08:59:19.162Z,5.03
2019-03-26T09:01:54.046Z,4.73
2019-03-26T09:04:28.943Z,4.70
2019-03-26T09:07:03.843Z,5.80
2019-03-26T09:09:39.816Z,5.67
2019-03-26T09:12:12.611Z,5.90
2019-03-26T09:14:46.409Z,5.10
2019-03-26T09:17:20.792Z,4.83
2019-03-26T09:19:54.531Z,4.90
2019-03-26T09:22:28.358Z,4.40
2019-03-26T09:25:08.465Z,4.97
2019-03-26T09:27:42.401Z,5.10
2019-03-26T09:30:16.688Z,5.17
2019-03-26T09:32:51.307Z,5.70
2019-03-26T09:35:24.558Z,5.87
2019-03-26T09:37:58.604Z,5.80
2019-03-26T09:40:32.256Z,5.37
2019-03-26T09:43:05.848Z,5.50
2019-03-26T09:45:41.578Z,5.33
2019-03-26T09:48:15.630Z,7.47
2019-03-26T09:50:51.301Z,6.13
2019-03-26T09:53:30.489Z,6.10
2019-03-26T09:56:02.687Z,6.23
2019-03-26T09:58:38.543Z,6.40
2019-03-26T10:01:14.571Z,5.92
2019-03-26T10:03:49.995Z,6.17
2019-03-26T10:06:24.357Z,6.33
2019-03-26T10:09:00.980Z,5.50
2019-03-26T10:11:35.064Z,6.30
2019-03-26T10:14:08.972Z,6.28
2019-03-26T10:16:42.778Z,6.17
2019-03-26T10:19:17.105Z,6.23
2019-03-26T10:21:51.285Z,5.87
2019-03-26T10:24:27.308Z,5.70
2019-03-26T10:27:01.614Z,6.50
2019-03-26T10:29:35.962Z,6.63
2019-03-26T10:32:09.772Z,8.70
2019-03-26T10:34:46.980Z,8.30
2019-03-26T10:37:21.407Z,8.30
2019-03-26T10:39:55.555Z,6.63
2019-03-26T10:42:30.623Z,6.62
2019-03-26T10:45:06.038Z,6.55
2019-03-26T10:47:41.025Z,6.57
2019-03-26T10:50:15.193Z,6.73
2019-03-26T10:52:49.821Z,7.73
2019-03-26T10:55:26.070Z,7.58
2019-03-26T10:58:02.555Z,6.77
2019-03-26T11:00:37.900Z,6.73
2019-03-26T11:03:18.652Z,6.67
2019-03-26T11:05:54.208Z,6.87
2019-03-26T11:08:31.778Z,7.70
2019-03-26T11:11:07.386Z,7.00
2019-03-26T11:13:42.341Z,6.30
2019-03-26T11:16:19.353Z,6.40
2019-03-26T11:18:54.281Z,6.60
2019-03-26T11:21:30.918Z,6.93
2019-03-26T11:24:05.417Z,6.50
2019-03-26T11:26:41.730Z,6.12
2019-03-26T11:29:18.880Z,6.57
2019-03-26T11:31:53.413Z,6.83
2019-03-26T11:34:28.702Z,6.93
2019-03-26T11:37:04.787Z,7.77
2019-03-26T11:39:40.688Z,8.08
2019-03-26T11:42:15.297Z,8.20
2019-03-26T11:44:50.603Z,8.53
2019-03-26T11:47:27.137Z,8.70
2019-03-26T11:50:05.003Z,8.40
2019-03-26T11:52:41.551Z,9.33
2019-03-26T11:55:17.083Z,8.03
2019-03-26T11:57:59.125Z,8.03
2019-03-26T12:00:34.028Z,8.33
2019-03-26T12:03:12.642Z,8.20
2019-03-26T12:05:56.899Z,7.50
2019-03-26T12:08:32.284Z,7.60
2019-03-26T12:11:07.525Z,6.83
2019-03-26T12:13:43.431Z,7.10
2019-03-26T12:16:24.708Z,6.60
2019-03-26T12:19:00.091Z,9.23
2019-03-26T12:21:39.535Z,7.10
2019-03-26T12:24:20.317Z,5.85
2019-03-26T12:26:55.628Z,6.13
2019-03-26T12:29:33.551Z,6.03
2019-03-26T12:32:11.531Z,6.10
2019-03-26T12:34:47.289Z,5.70
2019-03-26T12:37:23.219Z,5.83
2019-03-26T12:40:01.881Z,6.30
2019-03-26T12:42:38.050Z,6.83
2019-03-26T12:45:14.841Z,6.23
2019-03-26T12:47:50.219Z,8.07
2019-03-26T12:50:28.229Z,9.05
2019-03-26T12:53:03.606Z,8.78
2019-03-26T12:55:41.061Z,8.28
2019-03-26T12:58:30.633Z,8.50
2019-03-26T13:00:55.777Z,8.33
2019-03-26T13:03:32.839Z,8.08
2019-03-26T13:06:08.616Z,8.17
2019-03-26T13:08:44.526Z,8.80
2019-03-26T13:11:19.336Z,8.93
2019-03-26T13:13:56.474Z,9.77
2019-03-26T13:16:31.422Z,9.20
2019-03-26T13:19:07.015Z,9.03
2019-03-26T13:21:52.991Z,9.13
2019-03-26T13:24:28.149Z,9.30
2019-03-26T13:27:03.193Z,9.58
2019-03-26T13:29:44.452Z,9.47
2019-03-26T13:32:19.506Z,10.37
2019-03-26T13:34:56.446Z,11.70
2019-03-26T13:37:48.397Z,10.80
2019-03-26T13:40:27.543Z,10.08
2019-03-26T13:43:01.577Z,10.03
2019-03-26T13:45:45.112Z,10.10
2019-03-26T13:48:19.227Z,10.63
2019-03-26T13:50:54.487Z,10.78
2019-03-26T13:53:40.609Z,9.50
2019-03-26T13:56:22.501Z,8.47
2019-03-26T13:58:59.473Z,7.50
2019-03-26T14:01:33.827Z,8.10
2019-03-26T14:04:08.962Z,8.33
2019-03-26T14:06:45.328Z,8.37
2019-03-26T14:09:20.787Z,8.77
2019-03-26T14:11:57.725Z,8.87
2019-03-26T14:14:33.624Z,8.13
2019-03-26T14:17:15.269Z,8.80
2019-03-26T14:19:50.773Z,8.47
2019-03-26T14:22:28.850Z,8.93
2019-03-26T14:25:05.797Z,7.83
2019-03-26T14:27:41.308Z,9.03
2019-03-26T14:30:17.484Z,8.20
2019-03-26T14:32:52.991Z,7.58
2019-03-26T14:35:29.833Z,8.43
2019-03-26T14:38:05.191Z,7.60
2019-03-26T14:40:54.090Z,7.80
2019-03-26T14:43:18.278Z,6.83
2019-03-26T14:45:54.825Z,7.45
2019-03-26T14:48:29.266Z,9.05
2019-03-26T14:51:05.211Z,9.83
2019-03-26T14:53:39.787Z,12.07
2019-03-26T14:56:15.817Z,12.07
2019-03-26T14:58:53.673Z,13.20
2019-03-26T15:01:28.104Z,12.78
2019-03-26T15:04:02.058Z,12.50
2019-03-26T15:06:35.964Z,12.33
2019-03-26T15:09:11.388Z,11.70
2019-03-26T15:11:45.858Z,11.70
2019-03-26T15:14:19.601Z,10.77
2019-03-26T15:16:53.260Z,9.10
2019-03-26T15:19:28.804Z,7.27
2019-03-26T15:22:04.308Z,7.17
2019-03-26T15:24:39.512Z,6.83
2019-03-26T15:27:13.514Z,6.97
2019-03-26T15:29:47.438Z,6.30
2019-03-26T15:32:20.829Z,7.10
2019-03-26T15:34:54.600Z,7.33
2019-03-26T15:37:30.283Z,8.50
2019-03-26T15:40:04.123Z,8.43
2019-03-26T15:42:38.414Z,8.27
2019-03-26T15:45:12.769Z,10.77
2019-03-26T15:47:46.242Z,7.97
2019-03-26T15:50:40.071Z,8.80
2019-03-26T15:53:13.867Z,8.80
2019-03-26T15:55:47.830Z,9.00
2019-03-26T15:58:22.087Z,8.27
2019-03-26T16:00:57.222Z,8.80
2019-03-26T16:03:32.363Z,9.40
2019-03-26T16:06:07.751Z,10.80
2019-03-26T16:08:41.313Z,10.80
2019-03-26T16:11:15.095Z,10.90
2019-03-26T16:13:49.085Z,10.03
2019-03-26T16:16:22.922Z,10.67
2019-03-26T16:18:56.940Z,10.90
2019-03-26T16:21:30.630Z,11.47
2019-03-26T16:24:04.428Z,10.27
2019-03-26T16:26:38.185Z,11.07
2019-03-26T16:29:12.060Z,13.43
2019-03-26T16:31:45.914Z,11.68
2019-03-26T16:34:21.339Z,10.70
2019-03-26T16:36:59.842Z,9.60
2019-03-26T16:39:32.066Z,8.10
2019-03-26T16:42:05.702Z,8.77
2019-03-26T16:44:39.238Z,8.57
2019-03-26T16:47:12.827Z,9.53
2019-03-26T16:49:47.618Z,10.13
2019-03-26T16:52:21.533Z,9.93
2019-03-26T16:54:55.659Z,10.40
2019-03-26T16:57:29.740Z,10.20
2019-03-26T17:00:03.413Z,10.10
2019-03-26T17:02:37.012Z,9.43
2019-03-26T17:05:12.130Z,9.53
2019-03-26T17:07:45.753Z,9.00
2019-03-26T17:10:20.663Z,9.57
2019-03-26T17:12:54.476Z,9.15
2019-03-26T17:15:29.560Z,8.90
2019-03-26T17:18:04.571Z,8.78
2019-03-26T17:20:38.283Z,8.20
2019-03-26T17:23:11.831Z,8.43
2019-03-26T17:25:45.488Z,7.93
2019-03-26T17:28:19.646Z,7.83
2019-03-26T17:30:53.284Z,8.57
2019-03-26T17:33:28.923Z,7.90
2019-03-26T17:36:01.570Z,7.87
2019-03-26T17:38:35.163Z,7.90
2019-03-26T17:41:09.103Z,8.07
2019-03-26T17:43:42.858Z,8.50
2019-03-26T17:46:17.431Z,8.40
2019-03-26T17:48:51.249Z,8.90
2019-03-26T17:51:26.218Z,9.50
2019-03-26T17:54:00.195Z,9.30
2019-03-26T17:56:33.575Z,10.07
2019-03-26T17:59:07.128Z,9.80
2019-03-26T18:01:41.076Z,9.93
2019-03-26T18:04:14.442Z,8.60
2019-03-26T18:06:49.656Z,8.90
2019-03-26T18:09:24.573Z,8.68
2019-03-26T18:11:58.276Z,8.47
2019-03-26T18:14:31.790Z,8.83
2019-03-26T18:17:05.730Z,8.24
2019-03-26T18:19:40.828Z,8.03
2019-03-26T18:22:16.197Z,8.83
2019-03-26T18:24:50.027Z,7.93
2019-03-26T18:27:23.924Z,7.87
2019-03-26T18:29:57.473Z,8.68
2019-03-26T18:32:31.505Z,8.80
2019-03-26T18:35:04.969Z,8.47
2019-03-26T18:37:45.873Z,8.97
2019-03-26T18:40:19.513Z,8.97
2019-03-26T18:42:53.039Z,8.95
2019-03-26T18:45:28.440Z,8.03
2019-03-26T18:48:02.119Z,8.88
2019-03-26T18:50:35.888Z,8.90
2019-03-26T18:53:10.790Z,9.27
2019-03-26T18:55:44.556Z,9.07
2019-03-26T18:58:18.573Z,9.00
2019-03-26T19:00:53.719Z,9.03
2019-03-26T19:03:27.423Z,8.93
2019-03-26T19:06:01.061Z,9.27
2019-03-26T19:08:34.773Z,9.27
2019-03-26T19:11:08.280Z,9.47
2019-03-26T19:13:41.990Z,9.97
2019-03-26T19:16:15.749Z,9.77
2019-03-26T19:18:49.169Z,9.50
2019-03-26T19:21:22.735Z,9.77
2019-03-26T19:24:04.077Z,10.33
2019-03-26T19:26:32.608Z,10.08
2019-03-26T19:29:06.589Z,9.40
2019-03-26T19:31:41.405Z,10.60
2019-03-26T19:34:16.093Z,9.53
2019-03-26T19:36:52.560Z,9.77
2019-03-26T19:39:27.143Z,10.28
2019-03-26T19:42:00.993Z,10.27
2019-03-26T19:44:34.669Z,9.80
2019-03-26T19:47:08.602Z,9.47
2019-03-26T19:49:42.101Z,9.63
2019-03-26T19:52:15.959Z,9.63
2019-03-26T19:54:49.640Z,9.67
2019-03-26T19:57:22.967Z,9.88
2019-03-26T19:59:56.551Z,9.77
2019-03-26T20:02:30.262Z,9.83
2019-03-26T20:05:03.829Z,11.07
2019-03-26T20:07:38.794Z,10.90
2019-03-26T20:10:14.416Z,10.53
2019-03-26T20:12:47.919Z,10.20
2019-03-26T20:15:22.068Z,10.10
2019-03-26T20:17:55.867Z,10.60
2019-03-26T20:20:29.562Z,10.63
2019-03-26T20:23:04.754Z,10.90
2019-03-26T20:25:38.458Z,9.60
2019-03-26T20:28:12.243Z,10.70
2019-03-26T20:30:45.867Z,11.43
2019-03-26T20:33:19.249Z,11.77
2019-03-26T20:35:54.439Z,11.30
2019-03-26T20:38:28.313Z,10.75
2019-03-26T20:41:01.746Z,11.07
2019-03-26T20:43:37.553Z,11.33
2019-03-26T20:46:10.299Z,10.90
2019-03-26T20:48:43.999Z,10.83
2019-03-26T20:51:17.942Z,11.47
2019-03-26T20:53:51.487Z,11.12
2019-03-26T20:56:25.263Z,10.83
2019-03-26T20:58:59.156Z,10.83
2019-03-26T21:01:32.922Z,11.87
2019-03-26T21:04:06.726Z,11.53
2019-03-26T21:06:40.566Z,10.97
2019-03-26T21:09:14.192Z,11.47
2019-03-26T21:11:47.761Z,11.30
2019-03-26T21:14:21.310Z,12.27
2019-03-26T21:16:56.547Z,11.43
2019-03-26T21:19:30.267Z,12.10
2019-03-26T21:22:06.825Z,11.67
2019-03-26T21:24:40.539Z,11.90
2019-03-26T21:27:16.609Z,12.10
2019-03-26T21:29:50.130Z,10.80
2019-03-26T21:32:24.079Z,11.23
2019-03-26T21:34:57.869Z,11.60
2019-03-26T21:37:31.742Z,11.33
2019-03-26T21:40:07.592Z,11.53
2019-03-26T21:42:41.418Z,11.07
2019-03-26T21:45:17.528Z,11.47
2019-03-26T21:47:51.297Z,11.13
2019-03-26T21:50:25.156Z,11.70
2019-03-26T21:52:58.874Z,12.17
2019-03-26T21:55:32.417Z,11.47
2019-03-26T21:58:05.937Z,11.03
2019-03-26T22:00:39.191Z,10.77
2019-03-26T22:03:12.848Z,9.90
2019-03-26T22:05:47.936Z,10.90
2019-03-26T22:08:21.674Z,10.67
2019-03-26T22:10:55.580Z,10.20
2019-03-26T22:13:30.122Z,11.40
2019-03-26T22:16:03.680Z,10.83
2019-03-26T22:18:38.621Z,10.90
2019-03-26T22:21:31.742Z,10.80
2019-03-26T22:24:07.226Z,10.80
2019-03-26T22:26:41.179Z,11.28
2019-03-26T22:29:15.085Z,10.93
2019-03-26T22:31:48.921Z,11.45
2019-03-26T22:34:24.504Z,12.30
2019-03-26T22:36:58.591Z,10.70
2019-03-26T22:39:32.508Z,10.97
2019-03-26T22:42:06.563Z,11.12
2019-03-26T22:44:43.613Z,10.27
2019-03-26T22:47:17.041Z,10.17
2019-03-26T22:49:51.220Z,7.58
2019-03-26T22:52:26.829Z,8.63
2019-03-26T22:55:00.470Z,7.37
2019-03-26T22:57:34.164Z,5.90
2019-03-26T23:00:22.662Z,5.60
2019-03-26T23:02:56.457Z,4.23
2019-03-26T23:05:29.967Z,4.40
2019-03-26T23:08:03.556Z,4.90
2019-03-26T23:10:38.954Z,5.17
2019-03-26T23:13:14.056Z,4.33
2019-03-26T23:15:47.689Z,3.70
2019-03-26T23:18:21.499Z,4.50
2019-03-26T23:20:55.447Z,5.13
2019-03-26T23:23:28.927Z,4.93
2019-03-26T23:26:04.060Z,4.80
2019-03-26T23:28:37.381Z,4.50
2019-03-26T23:31:11.237Z,3.85
2019-03-26T23:33:45.166Z,4.60
2019-03-26T23:36:18.714Z,4.42
2019-03-26T23:38:52.316Z,4.90
2019-03-26T23:41:26.154Z,4.93
2019-03-26T23:44:01.116Z,4.70
2019-03-26T23:46:34.719Z,4.93
2019-03-26T23:49:08.224Z,5.20
2019-03-26T23:51:41.465Z,5.23
2019-03-26T23:54:17.243Z,4.67
2019-03-26T23:56:52.290Z,4.63
2019-03-26T23:59:27.573Z,4.83
